sensor_id;sensor_type;location;lat;lon;timestamp;P1;durP1;ratioP1;P2;durP2;ratioP2
30036;SDS011;36325;51.512;-0.382;2023-04-15T00:01:00;14.25;;;6.60;;
30036;SDS011;36325;51.512;-0.382;2023-04-15T00:03:28;9.90;;;6.35;;
30036;SDS011;36325;51.512;-0.382;2023-04-15T00:05:56;12.25;;;6.80;;
30036;SDS011;36325;51.512;-0.382;2023-04-15T00:08:24;14.98;;;6.68;;
30036;SDS011;36325;51.512;-0.382;2023-04-15T00:10:51;15.20;;;7.88;;
30036;SDS011;36325;51.512;-0.382;2023-04-15T00:13:19;12.48;;;7.78;;
30036;SDS011;36325;51.512;-0.382;2023-04-15T00:15:46;16.55;;;6.88;;
30036;SDS011;36325;51.512;-0.382;2023-04-15T00:18:13;14.38;;;7.78;;
30036;SDS011;36325;51.512;-0.382;2023-04-15T00:20:40;14.35;;;8.10;;
30036;SDS011;36325;51.512;-0.382;2023-04-15T00:23:07;12.93;;;7.35;;
30036;SDS011;36325;51.512;-0.382;2023-04-15T00:25:34;12.68;;;7.85;;
30036;SDS011;36325;51.512;-0.382;2023-04-15T00:28:02;17.77;;;8.38;;
30036;SDS011;36325;51.512;-0.382;2023-04-15T00:30:29;13.80;;;7.60;;
30036;SDS011;36325;51.512;-0.382;2023-04-15T00:32:57;13.80;;;8.20;;
30036;SDS011;36325;51.512;-0.382;2023-04-15T00:35:24;16.27;;;8.27;;
30036;SDS011;36325;51.512;-0.382;2023-04-15T00:37:51;12.30;;;8.15;;
30036;SDS011;36325;51.512;-0.382;2023-04-15T00:40:18;20.67;;;8.60;;
30036;SDS011;36325;51.512;-0.382;2023-04-15T00:42:48;19.05;;;7.85;;
30036;SDS011;36325;51.512;-0.382;2023-04-15T00:45:15;16.42;;;9.65;;
30036;SDS011;36325;51.512;-0.382;2023-04-15T00:47:42;14.18;;;8.57;;
30036;SDS011;36325;51.512;-0.382;2023-04-15T00:50:10;18.88;;;8.95;;
30036;SDS011;36325;51.512;-0.382;2023-04-15T00:52:39;17.48;;;9.73;;
30036;SDS011;36325;51.512;-0.382;2023-04-15T00:55:06;16.15;;;8.70;;
30036;SDS011;36325;51.512;-0.382;2023-04-15T00:57:34;17.20;;;9.68;;
30036;SDS011;36325;51.512;-0.382;2023-04-15T01:00:02;18.13;;;10.00;;
30036;SDS011;36325;51.512;-0.382;2023-04-15T01:02:37;16.95;;;9.57;;
30036;SDS011;36325;51.512;-0.382;2023-04-15T01:05:05;18.13;;;9.25;;
30036;SDS011;36325;51.512;-0.382;2023-04-15T01:07:33;19.80;;;10.70;;
30036;SDS011;36325;51.512;-0.382;2023-04-15T01:10:01;14.82;;;8.40;;
30036;SDS011;36325;51.512;-0.382;2023-04-15T01:12:29;21.40;;;8.60;;
30036;SDS011;36325;51.512;-0.382;2023-04-15T01:14:58;15.80;;;7.85;;
30036;SDS011;36325;51.512;-0.382;2023-04-15T01:17:25;12.80;;;6.97;;
30036;SDS011;36325;51.512;-0.382;2023-04-15T01:19:54;13.88;;;7.75;;
30036;SDS011;36325;51.512;-0.382;2023-04-15T01:22:23;14.75;;;7.47;;
30036;SDS011;36325;51.512;-0.382;2023-04-15T01:27:35;12.40;;;6.90;;
30036;SDS011;36325;51.512;-0.382;2023-04-15T01:30:08;12.02;;;7.20;;
30036;SDS011;36325;51.512;-0.382;2023-04-15T01:32:36;16.33;;;8.43;;
30036;SDS011;36325;51.512;-0.382;2023-04-15T01:35:03;12.55;;;8.00;;
30036;SDS011;36325;51.512;-0.382;2023-04-15T01:37:31;17.55;;;7.78;;
30036;SDS011;36325;51.512;-0.382;2023-04-15T01:39:59;11.73;;;7.10;;
30036;SDS011;36325;51.512;-0.382;2023-04-15T01:42:26;12.63;;;7.63;;
30036;SDS011;36325;51.512;-0.382;2023-04-15T01:44:53;13.70;;;7.68;;
30036;SDS011;36325;51.512;-0.382;2023-04-15T01:47:20;8.93;;;6.05;;
30036;SDS011;36325;51.512;-0.382;2023-04-15T01:49:48;9.85;;;6.40;;
30036;SDS011;36325;51.512;-0.382;2023-04-15T01:52:15;10.57;;;6.45;;
30036;SDS011;36325;51.512;-0.382;2023-04-15T01:54:42;10.68;;;6.63;;
30036;SDS011;36325;51.512;-0.382;2023-04-15T01:57:10;14.07;;;6.03;;
30036;SDS011;36325;51.512;-0.382;2023-04-15T01:59:38;11.27;;;6.55;;
30036;SDS011;36325;51.512;-0.382;2023-04-15T02:02:05;10.02;;;6.03;;
30036;SDS011;36325;51.512;-0.382;2023-04-15T02:04:33;11.38;;;6.45;;
30036;SDS011;36325;51.512;-0.382;2023-04-15T02:07:00;13.45;;;6.55;;
30036;SDS011;36325;51.512;-0.382;2023-04-15T02:09:27;13.32;;;6.50;;
30036;SDS011;36325;51.512;-0.382;2023-04-15T02:11:54;8.40;;;5.05;;
30036;SDS011;36325;51.512;-0.382;2023-04-15T02:14:23;10.30;;;4.78;;
30036;SDS011;36325;51.512;-0.382;2023-04-15T02:16:52;7.85;;;3.92;;
30036;SDS011;36325;51.512;-0.382;2023-04-15T02:19:20;5.55;;;3.70;;
30036;SDS011;36325;51.512;-0.382;2023-04-15T02:21:47;7.10;;;4.57;;
30036;SDS011;36325;51.512;-0.382;2023-04-15T02:24:16;7.63;;;4.22;;
30036;SDS011;36325;51.512;-0.382;2023-04-15T02:26:43;7.32;;;4.57;;
30036;SDS011;36325;51.512;-0.382;2023-04-15T02:29:10;7.63;;;4.72;;
30036;SDS011;36325;51.512;-0.382;2023-04-15T02:31:39;6.65;;;4.60;;
30036;SDS011;36325;51.512;-0.382;2023-04-15T02:34:07;7.97;;;4.13;;
30036;SDS011;36325;51.512;-0.382;2023-04-15T02:36:34;6.97;;;4.65;;
30036;SDS011;36325;51.512;-0.382;2023-04-15T02:39:03;6.18;;;4.07;;
30036;SDS011;36325;51.512;-0.382;2023-04-15T02:41:31;9.50;;;4.95;;
30036;SDS011;36325;51.512;-0.382;2023-04-15T02:43:58;6.18;;;4.57;;
30036;SDS011;36325;51.512;-0.382;2023-04-15T02:46:28;5.45;;;4.03;;
30036;SDS011;36325;51.512;-0.382;2023-04-15T02:48:55;7.82;;;4.05;;
30036;SDS011;36325;51.512;-0.382;2023-04-15T02:51:23;5.80;;;3.38;;
30036;SDS011;36325;51.512;-0.382;2023-04-15T02:53:50;5.38;;;2.70;;
30036;SDS011;36325;51.512;-0.382;2023-04-15T02:56:17;5.05;;;2.42;;
30036;SDS011;36325;51.512;-0.382;2023-04-15T02:58:45;3.28;;;2.45;;
30036;SDS011;36325;51.512;-0.382;2023-04-15T03:01:16;3.10;;;2.28;;
30036;SDS011;36325;51.512;-0.382;2023-04-15T03:03:43;5.38;;;2.53;;
30036;SDS011;36325;51.512;-0.382;2023-04-15T03:06:11;4.15;;;2.63;;
30036;SDS011;36325;51.512;-0.382;2023-04-15T03:08:38;5.28;;;3.33;;
30036;SDS011;36325;51.512;-0.382;2023-04-15T03:11:05;6.63;;;3.30;;
30036;SDS011;36325;51.512;-0.382;2023-04-15T03:13:35;4.95;;;3.25;;
30036;SDS011;36325;51.512;-0.382;2023-04-15T03:16:09;7.60;;;3.30;;
30036;SDS011;36325;51.512;-0.382;2023-04-15T03:18:37;4.90;;;3.78;;
30036;SDS011;36325;51.512;-0.382;2023-04-15T03:21:06;6.47;;;3.47;;
30036;SDS011;36325;51.512;-0.382;2023-04-15T03:23:36;6.72;;;3.95;;
30036;SDS011;36325;51.512;-0.382;2023-04-15T03:26:03;7.32;;;4.53;;
30036;SDS011;36325;51.512;-0.382;2023-04-15T03:28:32;7.28;;;4.18;;
30036;SDS011;36325;51.512;-0.382;2023-04-15T03:31:00;5.40;;;3.97;;
30036;SDS011;36325;51.512;-0.382;2023-04-15T03:33:32;5.50;;;3.78;;
30036;SDS011;36325;51.512;-0.382;2023-04-15T03:36:06;6.63;;;3.70;;
30036;SDS011;36325;51.512;-0.382;2023-04-15T03:38:41;7.20;;;3.58;;
30036;SDS011;36325;51.512;-0.382;2023-04-15T03:41:16;6.10;;;3.65;;
30036;SDS011;36325;51.512;-0.382;2023-04-15T03:43:48;4.63;;;3.17;;
30036;SDS011;36325;51.512;-0.382;2023-04-15T03:46:27;6.95;;;3.28;;
30036;SDS011;36325;51.512;-0.382;2023-04-15T03:48:54;7.28;;;4.38;;
30036;SDS011;36325;51.512;-0.382;2023-04-15T03:51:21;7.95;;;4.28;;
30036;SDS011;36325;51.512;-0.382;2023-04-15T03:53:48;6.35;;;3.65;;
30036;SDS011;36325;51.512;-0.382;2023-04-15T03:56:16;6.57;;;4.18;;
30036;SDS011;36325;51.512;-0.382;2023-04-15T03:58:43;8.20;;;4.68;;
30036;SDS011;36325;51.512;-0.382;2023-04-15T04:01:10;7.53;;;5.22;;
30036;SDS011;36325;51.512;-0.382;2023-04-15T04:03:37;9.15;;;5.15;;
30036;SDS011;36325;51.512;-0.382;2023-04-15T04:06:04;9.45;;;4.82;;
30036;SDS011;36325;51.512;-0.382;2023-04-15T04:08:32;9.25;;;5.40;;
30036;SDS011;36325;51.512;-0.382;2023-04-15T04:11:00;8.20;;;5.22;;
30036;SDS011;36325;51.512;-0.382;2023-04-15T04:13:27;8.00;;;5.30;;
30036;SDS011;36325;51.512;-0.382;2023-04-15T04:15:54;11.07;;;6.00;;
30036;SDS011;36325;51.512;-0.382;2023-04-15T04:18:21;9.20;;;5.57;;
30036;SDS011;36325;51.512;-0.382;2023-04-15T04:20:49;10.00;;;5.20;;
30036;SDS011;36325;51.512;-0.382;2023-04-15T04:23:16;10.70;;;6.60;;
30036;SDS011;36325;51.512;-0.382;2023-04-15T04:25:44;10.20;;;6.72;;
30036;SDS011;36325;51.512;-0.382;2023-04-15T04:28:11;9.90;;;6.57;;
30036;SDS011;36325;51.512;-0.382;2023-04-15T04:30:38;10.93;;;7.20;;
30036;SDS011;36325;51.512;-0.382;2023-04-15T04:33:06;12.30;;;7.72;;
30036;SDS011;36325;51.512;-0.382;2023-04-15T04:35:34;11.57;;;7.32;;
30036;SDS011;36325;51.512;-0.382;2023-04-15T04:38:03;13.38;;;7.93;;
30036;SDS011;36325;51.512;-0.382;2023-04-15T04:40:30;11.10;;;7.63;;
30036;SDS011;36325;51.512;-0.382;2023-04-15T04:42:57;10.50;;;7.07;;
30036;SDS011;36325;51.512;-0.382;2023-04-15T04:45:25;10.90;;;7.30;;
30036;SDS011;36325;51.512;-0.382;2023-04-15T04:47:52;12.88;;;6.47;;
30036;SDS011;36325;51.512;-0.382;2023-04-15T04:50:20;12.52;;;7.30;;
30036;SDS011;36325;51.512;-0.382;2023-04-15T04:52:47;9.52;;;6.53;;
30036;SDS011;36325;51.512;-0.382;2023-04-15T04:55:14;9.20;;;5.85;;
30036;SDS011;36325;51.512;-0.382;2023-04-15T04:57:41;12.02;;;6.50;;
30036;SDS011;36325;51.512;-0.382;2023-04-15T05:00:09;12.02;;;7.00;;
30036;SDS011;36325;51.512;-0.382;2023-04-15T05:02:36;8.45;;;5.60;;
30036;SDS011;36325;51.512;-0.382;2023-04-15T05:05:04;11.10;;;5.97;;
30036;SDS011;36325;51.512;-0.382;2023-04-15T05:07:32;9.82;;;6.55;;
30036;SDS011;36325;51.512;-0.382;2023-04-15T05:09:59;11.88;;;7.38;;
30036;SDS011;36325;51.512;-0.382;2023-04-15T05:12:27;11.90;;;6.22;;
30036;SDS011;36325;51.512;-0.382;2023-04-15T05:14:54;11.02;;;6.25;;
30036;SDS011;36325;51.512;-0.382;2023-04-15T05:17:21;8.50;;;6.00;;
30036;SDS011;36325;51.512;-0.382;2023-04-15T05:19:49;10.88;;;6.75;;
30036;SDS011;36325;51.512;-0.382;2023-04-15T05:22:16;11.40;;;7.18;;
30036;SDS011;36325;51.512;-0.382;2023-04-15T05:24:43;11.23;;;7.20;;
30036;SDS011;36325;51.512;-0.382;2023-04-15T05:27:10;13.40;;;7.30;;
30036;SDS011;36325;51.512;-0.382;2023-04-15T05:29:37;11.35;;;7.47;;
30036;SDS011;36325;51.512;-0.382;2023-04-15T05:32:05;12.60;;;7.95;;
30036;SDS011;36325;51.512;-0.382;2023-04-15T05:34:32;12.73;;;7.50;;
30036;SDS011;36325;51.512;-0.382;2023-04-15T05:36:59;14.40;;;7.78;;
30036;SDS011;36325;51.512;-0.382;2023-04-15T05:39:27;11.57;;;7.55;;
30036;SDS011;36325;51.512;-0.382;2023-04-15T05:41:55;15.32;;;7.82;;
30036;SDS011;36325;51.512;-0.382;2023-04-15T05:44:23;12.73;;;7.68;;
30036;SDS011;36325;51.512;-0.382;2023-04-15T05:46:50;12.00;;;7.47;;
30036;SDS011;36325;51.512;-0.382;2023-04-15T05:49:17;14.70;;;7.25;;
30036;SDS011;36325;51.512;-0.382;2023-04-15T05:51:46;12.40;;;7.20;;
30036;SDS011;36325;51.512;-0.382;2023-04-15T05:54:14;9.25;;;5.97;;
30036;SDS011;36325;51.512;-0.382;2023-04-15T05:56:42;9.48;;;6.43;;
30036;SDS011;36325;51.512;-0.382;2023-04-15T05:59:10;10.27;;;5.50;;
30036;SDS011;36325;51.512;-0.382;2023-04-15T06:01:37;9.88;;;5.18;;
30036;SDS011;36325;51.512;-0.382;2023-04-15T06:04:04;11.43;;;5.53;;
30036;SDS011;36325;51.512;-0.382;2023-04-15T06:06:32;9.23;;;5.82;;
30036;SDS011;36325;51.512;-0.382;2023-04-15T06:09:00;7.57;;;5.07;;
30036;SDS011;36325;51.512;-0.382;2023-04-15T06:11:27;11.27;;;5.18;;
30036;SDS011;36325;51.512;-0.382;2023-04-15T06:13:54;6.40;;;4.65;;
30036;SDS011;36325;51.512;-0.382;2023-04-15T06:16:22;8.18;;;5.28;;
30036;SDS011;36325;51.512;-0.382;2023-04-15T06:18:49;7.95;;;5.38;;
30036;SDS011;36325;51.512;-0.382;2023-04-15T06:21:16;9.38;;;4.95;;
30036;SDS011;36325;51.512;-0.382;2023-04-15T06:23:44;6.65;;;4.82;;
30036;SDS011;36325;51.512;-0.382;2023-04-15T06:26:11;9.10;;;5.05;;
30036;SDS011;36325;51.512;-0.382;2023-04-15T06:28:38;6.22;;;4.57;;
30036;SDS011;36325;51.512;-0.382;2023-04-15T06:31:06;8.85;;;5.05;;
30036;SDS011;36325;51.512;-0.382;2023-04-15T06:33:33;8.25;;;5.38;;
30036;SDS011;36325;51.512;-0.382;2023-04-15T06:36:00;6.95;;;4.78;;
30036;SDS011;36325;51.512;-0.382;2023-04-15T06:38:27;9.00;;;5.45;;
30036;SDS011;36325;51.512;-0.382;2023-04-15T06:40:55;7.43;;;5.25;;
30036;SDS011;36325;51.512;-0.382;2023-04-15T06:43:22;10.25;;;5.05;;
30036;SDS011;36325;51.512;-0.382;2023-04-15T06:45:49;8.00;;;5.05;;
30036;SDS011;36325;51.512;-0.382;2023-04-15T06:48:17;9.25;;;5.32;;
30036;SDS011;36325;51.512;-0.382;2023-04-15T06:50:44;12.80;;;5.13;;
30036;SDS011;36325;51.512;-0.382;2023-04-15T06:53:12;10.50;;;5.05;;
30036;SDS011;36325;51.512;-0.382;2023-04-15T06:55:39;7.15;;;4.50;;
30036;SDS011;36325;51.512;-0.382;2023-04-15T06:58:07;7.13;;;5.57;;
30036;SDS011;36325;51.512;-0.382;2023-04-15T07:00:34;5.43;;;4.28;;
30036;SDS011;36325;51.512;-0.382;2023-04-15T07:03:01;11.23;;;6.88;;
30036;SDS011;36325;51.512;-0.382;2023-04-15T07:05:29;13.20;;;10.18;;
30036;SDS011;36325;51.512;-0.382;2023-04-15T07:07:57;21.85;;;12.68;;
30036;SDS011;36325;51.512;-0.382;2023-04-15T07:10:25;14.82;;;10.32;;
30036;SDS011;36325;51.512;-0.382;2023-04-15T07:12:52;9.63;;;6.72;;
30036;SDS011;36325;51.512;-0.382;2023-04-15T07:15:20;10.10;;;5.95;;
30036;SDS011;36325;51.512;-0.382;2023-04-15T07:17:47;12.18;;;7.38;;
30036;SDS011;36325;51.512;-0.382;2023-04-15T07:20:15;14.10;;;8.07;;
30036;SDS011;36325;51.512;-0.382;2023-04-15T07:22:42;15.23;;;8.73;;
30036;SDS011;36325;51.512;-0.382;2023-04-15T07:25:09;11.40;;;7.15;;
30036;SDS011;36325;51.512;-0.382;2023-04-15T07:27:36;19.30;;;8.60;;
30036;SDS011;36325;51.512;-0.382;2023-04-15T07:30:05;10.18;;;7.07;;
30036;SDS011;36325;51.512;-0.382;2023-04-15T07:32:32;13.25;;;7.85;;
30036;SDS011;36325;51.512;-0.382;2023-04-15T07:35:00;12.05;;;7.78;;
30036;SDS011;36325;51.512;-0.382;2023-04-15T07:37:29;15.88;;;7.30;;
30036;SDS011;36325;51.512;-0.382;2023-04-15T07:39:56;11.52;;;7.50;;
30036;SDS011;36325;51.512;-0.382;2023-04-15T07:42:23;10.85;;;6.45;;
30036;SDS011;36325;51.512;-0.382;2023-04-15T07:44:51;11.48;;;7.72;;
30036;SDS011;36325;51.512;-0.382;2023-04-15T07:47:18;9.93;;;6.75;;
30036;SDS011;36325;51.512;-0.382;2023-04-15T07:49:45;11.65;;;8.90;;
30036;SDS011;36325;51.512;-0.382;2023-04-15T07:52:13;10.48;;;6.75;;
30036;SDS011;36325;51.512;-0.382;2023-04-15T07:54:40;10.00;;;6.43;;
30036;SDS011;36325;51.512;-0.382;2023-04-15T07:57:07;9.85;;;6.32;;
30036;SDS011;36325;51.512;-0.382;2023-04-15T07:59:34;8.40;;;5.80;;
30036;SDS011;36325;51.512;-0.382;2023-04-15T08:02:01;14.73;;;8.18;;
30036;SDS011;36325;51.512;-0.382;2023-04-15T08:04:29;9.07;;;5.72;;
30036;SDS011;36325;51.512;-0.382;2023-04-15T08:06:57;10.77;;;6.85;;
30036;SDS011;36325;51.512;-0.382;2023-04-15T08:09:25;11.45;;;7.50;;
30036;SDS011;36325;51.512;-0.382;2023-04-15T08:11:52;10.27;;;6.72;;
30036;SDS011;36325;51.512;-0.382;2023-04-15T08:14:19;11.38;;;6.63;;
30036;SDS011;36325;51.512;-0.382;2023-04-15T08:16:47;10.52;;;6.13;;
30036;SDS011;36325;51.512;-0.382;2023-04-15T08:19:14;8.05;;;5.57;;
30036;SDS011;36325;51.512;-0.382;2023-04-15T08:21:41;9.20;;;6.22;;
30036;SDS011;36325;51.512;-0.382;2023-04-15T08:24:08;11.85;;;6.25;;
30036;SDS011;36325;51.512;-0.382;2023-04-15T08:26:37;9.85;;;6.15;;
30036;SDS011;36325;51.512;-0.382;2023-04-15T08:29:04;10.27;;;5.80;;
30036;SDS011;36325;51.512;-0.382;2023-04-15T08:31:31;9.20;;;5.68;;
30036;SDS011;36325;51.512;-0.382;2023-04-15T08:33:58;11.60;;;5.93;;
30036;SDS011;36325;51.512;-0.382;2023-04-15T08:36:27;8.68;;;5.07;;
30036;SDS011;36325;51.512;-0.382;2023-04-15T08:38:54;9.13;;;6.00;;
30036;SDS011;36325;51.512;-0.382;2023-04-15T08:41:23;7.40;;;5.18;;
30036;SDS011;36325;51.512;-0.382;2023-04-15T08:43:58;9.85;;;4.80;;
30036;SDS011;36325;51.512;-0.382;2023-04-15T08:46:30;11.13;;;5.22;;
30036;SDS011;36325;51.512;-0.382;2023-04-15T08:49:00;9.98;;;5.68;;
30036;SDS011;36325;51.512;-0.382;2023-04-15T08:51:30;8.00;;;4.82;;
30036;SDS011;36325;51.512;-0.382;2023-04-15T08:53:59;6.95;;;4.70;;
30036;SDS011;36325;51.512;-0.382;2023-04-15T08:56:27;8.40;;;4.97;;
30036;SDS011;36325;51.512;-0.382;2023-04-15T08:58:58;7.60;;;4.45;;
30036;SDS011;36325;51.512;-0.382;2023-04-15T09:01:26;9.00;;;4.30;;
30036;SDS011;36325;51.512;-0.382;2023-04-15T09:03:54;11.95;;;4.30;;
30036;SDS011;36325;51.512;-0.382;2023-04-15T09:06:22;5.82;;;4.47;;
30036;SDS011;36325;51.512;-0.382;2023-04-15T09:08:51;10.32;;;4.57;;
30036;SDS011;36325;51.512;-0.382;2023-04-15T09:11:18;6.82;;;4.05;;
30036;SDS011;36325;51.512;-0.382;2023-04-15T09:13:48;6.90;;;4.60;;
30036;SDS011;36325;51.512;-0.382;2023-04-15T09:16:15;5.72;;;4.05;;
30036;SDS011;36325;51.512;-0.382;2023-04-15T09:18:42;6.25;;;4.00;;
30036;SDS011;36325;51.512;-0.382;2023-04-15T09:21:11;5.55;;;4.35;;
30036;SDS011;36325;51.512;-0.382;2023-04-15T09:24:00;5.72;;;3.97;;
30036;SDS011;36325;51.512;-0.382;2023-04-15T09:26:35;7.05;;;4.05;;
30036;SDS011;36325;51.512;-0.382;2023-04-15T09:29:07;5.97;;;3.90;;
30036;SDS011;36325;51.512;-0.382;2023-04-15T09:31:36;7.60;;;3.55;;
30036;SDS011;36325;51.512;-0.382;2023-04-15T09:34:03;6.45;;;3.83;;
30036;SDS011;36325;51.512;-0.382;2023-04-15T09:37:04;8.50;;;4.32;;
30036;SDS011;36325;51.512;-0.382;2023-04-15T09:39:24;10.18;;;3.90;;
30036;SDS011;36325;51.512;-0.382;2023-04-15T09:42:13;9.02;;;3.88;;
30036;SDS011;36325;51.512;-0.382;2023-04-15T09:44:39;7.90;;;4.07;;
30036;SDS011;36325;51.512;-0.382;2023-04-15T09:47:06;7.90;;;4.10;;
30036;SDS011;36325;51.512;-0.382;2023-04-15T09:49:33;7.80;;;4.03;;
30036;SDS011;36325;51.512;-0.382;2023-04-15T09:52:00;9.00;;;4.20;;
30036;SDS011;36325;51.512;-0.382;2023-04-15T09:54:32;4.87;;;3.83;;
30036;SDS011;36325;51.512;-0.382;2023-04-15T09:57:06;9.93;;;3.75;;
30036;SDS011;36325;51.512;-0.382;2023-04-15T09:59:35;8.68;;;3.95;;
30036;SDS011;36325;51.512;-0.382;2023-04-15T10:02:03;5.90;;;4.10;;
30036;SDS011;36325;51.512;-0.382;2023-04-15T10:04:37;5.32;;;3.50;;
30036;SDS011;36325;51.512;-0.382;2023-04-15T10:07:10;4.30;;;3.25;;
30036;SDS011;36325;51.512;-0.382;2023-04-15T10:09:38;6.55;;;4.15;;
30036;SDS011;36325;51.512;-0.382;2023-04-15T10:12:05;8.05;;;3.55;;
30036;SDS011;36325;51.512;-0.382;2023-04-15T10:14:33;7.93;;;3.60;;
30036;SDS011;36325;51.512;-0.382;2023-04-15T10:17:04;5.75;;;4.05;;
30036;SDS011;36325;51.512;-0.382;2023-04-15T10:19:35;6.65;;;4.10;;
30036;SDS011;36325;51.512;-0.382;2023-04-15T10:22:03;7.05;;;3.70;;
30036;SDS011;36325;51.512;-0.382;2023-04-15T10:24:30;7.05;;;3.67;;
30036;SDS011;36325;51.512;-0.382;2023-04-15T10:26:59;8.48;;;3.97;;
30036;SDS011;36325;51.512;-0.382;2023-04-15T10:29:26;7.88;;;4.05;;
30036;SDS011;36325;51.512;-0.382;2023-04-15T10:31:54;6.57;;;4.20;;
30036;SDS011;36325;51.512;-0.382;2023-04-15T10:34:22;8.38;;;4.43;;
30036;SDS011;36325;51.512;-0.382;2023-04-15T10:36:50;12.07;;;4.20;;
30036;SDS011;36325;51.512;-0.382;2023-04-15T10:39:38;6.57;;;4.25;;
30036;SDS011;36325;51.512;-0.382;2023-04-15T10:42:17;6.18;;;3.92;;
30036;SDS011;36325;51.512;-0.382;2023-04-15T10:44:48;9.98;;;4.20;;
30036;SDS011;36325;51.512;-0.382;2023-04-15T10:47:20;10.80;;;3.60;;
30036;SDS011;36325;51.512;-0.382;2023-04-15T10:52:16;7.35;;;3.40;;
30036;SDS011;36325;51.512;-0.382;2023-04-15T10:54:48;8.05;;;4.15;;
30036;SDS011;36325;51.512;-0.382;2023-04-15T10:57:20;9.57;;;4.45;;
30036;SDS011;36325;51.512;-0.382;2023-04-15T11:05:08;7.85;;;3.72;;
30036;SDS011;36325;51.512;-0.382;2023-04-15T11:12:39;11.05;;;4.22;;
30036;SDS011;36325;51.512;-0.382;2023-04-15T11:15:27;6.78;;;3.63;;
30036;SDS011;36325;51.512;-0.382;2023-04-15T11:20:50;6.50;;;3.45;;
30036;SDS011;36325;51.512;-0.382;2023-04-15T11:25:57;11.65;;;4.20;;
30036;SDS011;36325;51.512;-0.382;2023-04-15T11:28:26;6.70;;;4.05;;
30036;SDS011;36325;51.512;-0.382;2023-04-15T11:31:04;6.82;;;3.78;;
30036;SDS011;36325;51.512;-0.382;2023-04-15T11:33:37;7.70;;;4.45;;
30036;SDS011;36325;51.512;-0.382;2023-04-15T11:36:11;10.18;;;4.30;;
30036;SDS011;36325;51.512;-0.382;2023-04-15T11:38:42;11.90;;;5.05;;
30036;SDS011;36325;51.512;-0.382;2023-04-15T11:41:12;8.40;;;4.70;;
30036;SDS011;36325;51.512;-0.382;2023-04-15T11:43:39;8.35;;;4.70;;
30036;SDS011;36325;51.512;-0.382;2023-04-15T11:46:06;6.63;;;4.85;;
30036;SDS011;36325;51.512;-0.382;2023-04-15T11:48:35;8.38;;;5.53;;
30036;SDS011;36325;51.512;-0.382;2023-04-15T11:51:03;10.20;;;5.00;;
30036;SDS011;36325;51.512;-0.382;2023-04-15T11:53:35;9.38;;;4.90;;
30036;SDS011;36325;51.512;-0.382;2023-04-15T11:56:08;7.57;;;5.05;;
30036;SDS011;36325;51.512;-0.382;2023-04-15T11:58:37;6.95;;;4.40;;
30036;SDS011;36325;51.512;-0.382;2023-04-15T12:01:05;11.43;;;4.82;;
30036;SDS011;36325;51.512;-0.382;2023-04-15T12:03:41;7.53;;;4.88;;
30036;SDS011;36325;51.512;-0.382;2023-04-15T12:11:31;9.68;;;5.15;;
30036;SDS011;36325;51.512;-0.382;2023-04-15T12:16:55;11.75;;;6.13;;
30036;SDS011;36325;51.512;-0.382;2023-04-15T12:19:37;9.55;;;6.63;;
30036;SDS011;36325;51.512;-0.382;2023-04-15T12:22:11;7.95;;;5.18;;
30036;SDS011;36325;51.512;-0.382;2023-04-15T12:24:42;10.70;;;6.22;;
30036;SDS011;36325;51.512;-0.382;2023-04-15T12:27:14;11.60;;;6.10;;
30036;SDS011;36325;51.512;-0.382;2023-04-15T12:29:42;8.52;;;5.20;;
30036;SDS011;36325;51.512;-0.382;2023-04-15T12:32:13;9.05;;;5.30;;
30036;SDS011;36325;51.512;-0.382;2023-04-15T12:34:43;11.18;;;4.90;;
30036;SDS011;36325;51.512;-0.382;2023-04-15T12:37:14;9.40;;;5.38;;
30036;SDS011;36325;51.512;-0.382;2023-04-15T12:39:42;7.43;;;4.72;;
30036;SDS011;36325;51.512;-0.382;2023-04-15T12:42:11;10.68;;;3.97;;
30036;SDS011;36325;51.512;-0.382;2023-04-15T12:44:38;7.13;;;3.70;;
30036;SDS011;36325;51.512;-0.382;2023-04-15T12:47:06;9.45;;;3.78;;
30036;SDS011;36325;51.512;-0.382;2023-04-15T12:49:34;9.73;;;3.63;;
30036;SDS011;36325;51.512;-0.382;2023-04-15T12:52:01;5.40;;;3.08;;
30036;SDS011;36325;51.512;-0.382;2023-04-15T12:54:29;8.20;;;3.30;;
30036;SDS011;36325;51.512;-0.382;2023-04-15T12:56:57;5.30;;;3.50;;
30036;SDS011;36325;51.512;-0.382;2023-04-15T12:59:26;5.30;;;3.53;;
30036;SDS011;36325;51.512;-0.382;2023-04-15T13:01:54;4.90;;;3.28;;
30036;SDS011;36325;51.512;-0.382;2023-04-15T13:04:21;6.03;;;3.47;;
30036;SDS011;36325;51.512;-0.382;2023-04-15T13:06:49;7.68;;;4.05;;
30036;SDS011;36325;51.512;-0.382;2023-04-15T13:09:16;8.43;;;4.28;;
30036;SDS011;36325;51.512;-0.382;2023-04-15T13:11:44;7.95;;;3.80;;
30036;SDS011;36325;51.512;-0.382;2023-04-15T13:14:11;3.72;;;2.97;;
30036;SDS011;36325;51.512;-0.382;2023-04-15T13:16:38;4.70;;;2.42;;
30036;SDS011;36325;51.512;-0.382;2023-04-15T13:19:06;6.80;;;3.15;;
30036;SDS011;36325;51.512;-0.382;2023-04-15T13:21:33;3.55;;;2.40;;
30036;SDS011;36325;51.512;-0.382;2023-04-15T13:24:02;4.72;;;2.92;;
30036;SDS011;36325;51.512;-0.382;2023-04-15T13:26:30;3.75;;;2.40;;
30036;SDS011;36325;51.512;-0.382;2023-04-15T13:28:58;3.97;;;2.72;;
30036;SDS011;36325;51.512;-0.382;2023-04-15T13:31:26;4.32;;;2.78;;
30036;SDS011;36325;51.512;-0.382;2023-04-15T13:33:55;7.78;;;3.08;;
30036;SDS011;36325;51.512;-0.382;2023-04-15T13:36:23;5.22;;;2.90;;
30036;SDS011;36325;51.512;-0.382;2023-04-15T13:38:51;5.15;;;2.67;;
30036;SDS011;36325;51.512;-0.382;2023-04-15T13:41:19;7.15;;;3.08;;
30036;SDS011;36325;51.512;-0.382;2023-04-15T13:43:46;6.50;;;3.00;;
30036;SDS011;36325;51.512;-0.382;2023-04-15T13:46:14;4.85;;;2.47;;
30036;SDS011;36325;51.512;-0.382;2023-04-15T13:48:41;5.45;;;2.90;;
30036;SDS011;36325;51.512;-0.382;2023-04-15T13:51:08;6.07;;;2.97;;
30036;SDS011;36325;51.512;-0.382;2023-04-15T13:53:35;8.02;;;2.55;;
30036;SDS011;36325;51.512;-0.382;2023-04-15T13:56:04;7.30;;;4.60;;
30036;SDS011;36325;51.512;-0.382;2023-04-15T13:58:35;8.98;;;3.95;;
30036;SDS011;36325;51.512;-0.382;2023-04-15T14:01:03;5.85;;;3.20;;
30036;SDS011;36325;51.512;-0.382;2023-04-15T14:03:33;6.63;;;3.35;;
30036;SDS011;36325;51.512;-0.382;2023-04-15T14:06:02;6.40;;;2.97;;
30036;SDS011;36325;51.512;-0.382;2023-04-15T14:08:29;7.30;;;3.08;;
30036;SDS011;36325;51.512;-0.382;2023-04-15T14:10:57;8.32;;;3.47;;
30036;SDS011;36325;51.512;-0.382;2023-04-15T14:13:24;5.22;;;2.50;;
30036;SDS011;36325;51.512;-0.382;2023-04-15T14:15:51;4.25;;;2.38;;
30036;SDS011;36325;51.512;-0.382;2023-04-15T14:18:18;6.38;;;3.13;;
30036;SDS011;36325;51.512;-0.382;2023-04-15T14:20:46;6.70;;;2.83;;
30036;SDS011;36325;51.512;-0.382;2023-04-15T14:23:13;8.70;;;2.95;;
30036;SDS011;36325;51.512;-0.382;2023-04-15T14:25:40;5.22;;;2.65;;
30036;SDS011;36325;51.512;-0.382;2023-04-15T14:28:07;4.93;;;2.83;;
30036;SDS011;36325;51.512;-0.382;2023-04-15T14:30:34;5.82;;;2.40;;
30036;SDS011;36325;51.512;-0.382;2023-04-15T14:33:02;7.20;;;2.78;;
30036;SDS011;36325;51.512;-0.382;2023-04-15T14:35:29;7.25;;;2.85;;
30036;SDS011;36325;51.512;-0.382;2023-04-15T14:37:56;5.95;;;2.83;;
30036;SDS011;36325;51.512;-0.382;2023-04-15T14:40:23;6.03;;;3.00;;
30036;SDS011;36325;51.512;-0.382;2023-04-15T14:42:51;6.18;;;2.80;;
30036;SDS011;36325;51.512;-0.382;2023-04-15T14:45:18;5.47;;;2.53;;
30036;SDS011;36325;51.512;-0.382;2023-04-15T14:47:45;6.97;;;2.40;;
30036;SDS011;36325;51.512;-0.382;2023-04-15T14:50:12;4.43;;;2.40;;
30036;SDS011;36325;51.512;-0.382;2023-04-15T14:52:40;5.65;;;2.53;;
30036;SDS011;36325;51.512;-0.382;2023-04-15T14:55:07;6.78;;;2.90;;
30036;SDS011;36325;51.512;-0.382;2023-04-15T15:00:07;6.55;;;2.42;;
30036;SDS011;36325;51.512;-0.382;2023-04-15T15:02:35;6.13;;;3.20;;
30036;SDS011;36325;51.512;-0.382;2023-04-15T15:05:06;4.70;;;2.87;;
30036;SDS011;36325;51.512;-0.382;2023-04-15T15:07:34;4.93;;;2.70;;